Time;durP1;ratioP1;P1;durP2;ratioP2;P2;SDS_P1;SDS_P2;PMS_P1;PMS_P2;Temp;Humidity;BMP_temperature;BMP_pressure;BME280_temperature;BME280_humidity;BME280_pressure;Samples;Min_cycle;Max_cycle;Signal;HPM_P1;HPM_P2
2023/12/23 00:00:48;;;;;;;11.90;10.70;;;5.70;99.90;;;;;;5006075;28;20271;-69
2023/12/23 00:03:15;;;;;;;11.70;10.60;;;5.60;99.90;;;;;;4983924;28;20196;-69
2023/12/23 00:05:42;;;;;;;11.20;10.27;;;5.60;99.90;;;;;;4987329;28;20549;-68
2023/12/23 00:08:10;;;;;;;11.30;10.60;;;5.60;99.90;;;;;;5006314;28;20196;-69
2023/12/23 00:10:37;;;;;;;15.53;10.80;;;5.60;99.90;;;;;;5007650;28;20193;-63
2023/12/23 00:13:04;;;;;;;11.00;10.10;;;5.60;99.90;;;;;;4990434;28;20287;-62
2023/12/23 00:15:31;;;;;;;12.27;10.40;;;5.70;99.90;;;;;;5003445;28;20197;-62
2023/12/23 00:17:57;;;;;;;11.40;10.57;;;5.80;99.90;;;;;;5001100;28;20201;-64
2023/12/23 00:20:25;;;;;;;19.27;10.93;;;5.80;99.90;;;;;;4988617;28;20216;-69
2023/12/23 00:22:55;;;;;;;11.30;10.43;;;5.90;99.90;;;;;;5006463;28;20193;-68
2023/12/23 00:25:22;;;;;;;11.07;10.20;;;6.00;99.90;;;;;;4988638;28;20647;-69
2023/12/23 00:27:49;;;;;;;11.40;10.60;;;6.10;99.90;;;;;;5006014;28;20256;-69
2023/12/23 00:30:17;;;;;;;11.77;10.60;;;6.20;99.90;;;;;;4988057;28;20184;-69
2023/12/23 00:32:45;;;;;;;11.40;10.70;;;6.20;99.90;;;;;;4990249;28;20193;-67
2023/12/23 00:35:14;;;;;;;12.30;11.30;;;6.30;99.90;;;;;;5007693;28;20199;-70
2023/12/23 00:37:44;;;;;;;11.63;10.83;;;6.30;99.90;;;;;;4992926;28;20205;-69
2023/12/23 00:40:11;;;;;;;12.63;11.50;;;6.30;99.90;;;;;;4994017;28;20910;-69
2023/12/23 00:42:38;;;;;;;11.83;11.00;;;6.40;99.90;;;;;;5012189;28;20213;-69
2023/12/23 00:45:06;;;;;;;11.97;10.87;;;6.40;99.90;;;;;;4978495;28;20658;-70
2023/12/23 00:47:33;;;;;;;11.60;10.97;;;6.40;99.90;;;;;;5007298;28;20186;-70
2023/12/23 00:50:05;;;;;;;12.47;11.57;;;6.30;99.90;;;;;;4993489;28;20603;-69
2023/12/23 00:52:32;;;;;;;13.47;11.87;;;6.40;99.90;;;;;;5010862;28;20276;-67
2023/12/23 00:54:59;;;;;;;12.17;11.40;;;6.40;99.90;;;;;;5011569;28;20284;-69
2023/12/23 00:57:27;;;;;;;12.00;11.30;;;6.40;99.90;;;;;;4978607;28;20236;-69
2023/12/23 00:59:55;;;;;;;12.93;11.93;;;6.40;99.90;;;;;;5010716;28;20283;-69
2023/12/23 01:02:23;;;;;;;13.10;11.93;;;6.40;99.90;;;;;;4974583;28;20287;-69
2023/12/23 01:04:50;;;;;;;12.57;11.63;;;6.40;99.90;;;;;;4993132;28;20649;-68
2023/12/23 01:07:18;;;;;;;12.30;11.30;;;6.30;99.90;;;;;;4977833;28;20217;-70
2023/12/23 01:09:45;;;;;;;12.40;11.70;;;6.30;99.90;;;;;;5003462;28;20189;-69
2023/12/23 01:12:12;;;;;;;12.17;11.43;;;6.20;99.90;;;;;;4993580;28;20220;-68
2023/12/23 01:14:39;;;;;;;14.60;11.77;;;6.20;99.90;;;;;;4976905;28;20600;-69
2023/12/23 01:17:06;;;;;;;13.00;11.67;;;6.20;99.90;;;;;;4993784;28;20197;-69
2023/12/23 01:19:33;;;;;;;12.70;11.70;;;6.30;99.90;;;;;;5009769;28;20185;-69
2023/12/23 01:22:00;;;;;;;14.33;11.73;;;6.30;99.90;;;;;;5010292;28;20563;-67
2023/12/23 01:24:27;;;;;;;11.90;11.10;;;6.40;99.90;;;;;;5010894;28;20688;-69
2023/12/23 01:26:55;;;;;;;12.87;11.90;;;6.40;99.90;;;;;;4985565;28;20231;-69
2023/12/23 01:29:22;;;;;;;15.97;11.53;;;6.40;99.90;;;;;;5007155;28;20635;-64
2023/12/23 01:31:49;;;;;;;12.50;11.70;;;6.50;99.90;;;;;;5010184;28;20268;-69
2023/12/23 01:34:16;;;;;;;13.50;12.27;;;6.50;99.90;;;;;;5010952;28;20834;-69
2023/12/23 01:36:43;;;;;;;12.60;11.60;;;6.50;99.90;;;;;;4988000;28;20762;-68
2023/12/23 01:39:10;;;;;;;12.90;11.80;;;6.50;99.90;;;;;;5005619;28;20700;-69
2023/12/23 01:41:37;;;;;;;13.43;12.07;;;6.50;99.90;;;;;;4990250;28;20289;-68
2023/12/23 01:44:05;;;;;;;17.70;12.70;;;6.50;99.90;;;;;;5005527;28;20280;-68
2023/12/23 01:46:32;;;;;;;13.17;11.90;;;6.50;99.90;;;;;;4997766;28;20780;-69
2023/12/23 01:49:01;;;;;;;12.53;11.80;;;6.50;99.90;;;;;;5021660;28;20683;-69
2023/12/23 01:51:28;;;;;;;13.33;12.13;;;6.40;99.90;;;;;;4976982;28;20205;-68
2023/12/23 01:54:04;;;;;;;12.53;11.50;;;6.50;99.90;;;;;;4993758;28;20601;-72
2023/12/23 01:56:33;;;;;;;15.57;12.00;;;6.60;99.90;;;;;;4979781;28;20620;-68
2023/12/23 01:59:03;;;;;;;12.60;11.70;;;6.60;99.90;;;;;;4985140;28;20213;-69
2023/12/23 02:01:32;;;;;;;12.73;11.53;;;6.60;99.90;;;;;;4960323;28;20194;-70
2023/12/23 02:04:01;;;;;;;12.30;11.30;;;6.70;99.90;;;;;;4991810;28;20227;-69
2023/12/23 02:06:29;;;;;;;12.57;11.63;;;6.60;99.90;;;;;;5005020;28;20693;-69
2023/12/23 02:09:03;;;;;;;12.07;11.40;;;6.60;99.90;;;;;;4980202;28;20207;-68
2023/12/23 02:11:44;;;;;;;12.50;11.70;;;6.60;99.90;;;;;;4986170;28;20204;-69
2023/12/23 02:14:26;;;;;;;12.90;11.97;;;6.60;99.90;;;;;;4977773;28;20209;-69
2023/12/23 02:16:55;;;;;;;12.80;11.73;;;6.60;99.90;;;;;;4969845;28;20254;-69
2023/12/23 02:19:23;;;;;;;12.67;11.77;;;6.60;99.90;;;;;;4979320;28;20659;-69
2023/12/23 02:21:52;;;;;;;12.63;11.57;;;6.60;99.90;;;;;;4994230;28;20281;-67
2023/12/23 02:24:20;;;;;;;12.23;11.43;;;6.60;99.90;;;;;;4992535;28;20208;-69
2023/12/23 02:26:53;;;;;;;12.93;11.93;;;6.50;99.90;;;;;;4983964;28;20236;-71
2023/12/23 02:29:23;;;;;;;12.57;11.57;;;6.50;99.90;;;;;;4974555;28;20229;-69
2023/12/23 02:31:56;;;;;;;12.50;11.60;;;6.60;99.90;;;;;;5006741;28;20650;-62
2023/12/23 02:34:29;;;;;;;12.80;11.70;;;6.50;99.90;;;;;;4992215;28;20596;-63
2023/12/23 02:36:58;;;;;;;12.60;11.43;;;6.60;99.90;;;;;;4996575;28;20280;-63
2023/12/23 02:39:30;;;;;;;12.27;11.47;;;6.60;99.90;;;;;;4992830;28;20821;-70
2023/12/23 02:42:11;;;;;;;12.80;11.67;;;6.60;99.90;;;;;;4978983;28;20224;-69
2023/12/23 02:44:39;;;;;;;12.87;11.90;;;6.50;99.90;;;;;;4991994;28;20208;-69
2023/12/23 02:47:07;;;;;;;12.47;11.57;;;6.60;99.90;;;;;;4970101;28;20222;-69
2023/12/23 02:49:35;;;;;;;13.07;12.17;;;6.60;99.90;;;;;;4992558;28;20193;-69
2023/12/23 02:52:08;;;;;;;12.73;11.60;;;6.60;99.90;;;;;;4993005;28;20197;-71
2023/12/23 02:54:42;;;;;;;12.80;11.70;;;6.60;99.90;;;;;;4993276;28;20189;-68
2023/12/23 02:57:11;;;;;;;12.47;11.30;;;6.70;99.90;;;;;;4978786;28;20193;-69
2023/12/23 02:59:39;;;;;;;12.50;11.70;;;6.60;99.90;;;;;;4975597;28;20193;-71
2023/12/23 03:06:14;;;;;;;12.17;11.03;;;6.70;99.90;;;;;;4999337;28;20280;-70
2023/12/23 03:08:43;;;;;;;12.13;11.30;;;6.70;99.90;;;;;;4978171;28;20264;-69
2023/12/23 03:11:12;;;;;;;11.50;10.90;;;6.70;99.90;;;;;;4988697;28;20520;-69
2023/12/23 03:13:41;;;;;;;12.17;11.20;;;6.70;99.90;;;;;;4976841;28;20662;-70
2023/12/23 03:16:21;;;;;;;12.10;10.97;;;6.70;99.90;;;;;;4977641;28;20207;-72
2023/12/23 03:18:55;;;;;;;12.30;11.30;;;6.80;99.90;;;;;;4991391;28;20196;-70
2023/12/23 03:21:23;;;;;;;12.73;11.10;;;6.80;99.90;;;;;;4991478;28;20293;-70
2023/12/23 03:23:50;;;;;;;12.37;11.30;;;6.70;99.90;;;;;;5006493;28;20201;-70
2023/12/23 03:26:17;;;;;;;11.63;10.70;;;6.70;99.90;;;;;;4969305;28;20332;-70
2023/12/23 03:28:44;;;;;;;11.40;10.60;;;6.70;99.90;;;;;;4990008;28;20304;-70
2023/12/23 03:31:11;;;;;;;11.60;10.47;;;6.60;99.90;;;;;;5001273;28;20231;-69
2023/12/23 03:33:41;;;;;;;12.10;10.80;;;6.60;99.90;;;;;;4989555;28;20661;-69
2023/12/23 03:36:09;;;;;;;10.20;9.50;;;6.60;99.90;;;;;;5005062;28;20268;-69
2023/12/23 03:38:37;;;;;;;9.93;9.30;;;6.60;99.90;;;;;;4991512;28;20200;-68
2023/12/23 03:41:07;;;;;;;9.97;9.20;;;6.50;99.90;;;;;;4990219;28;20195;-68
2023/12/23 03:43:36;;;;;;;10.13;9.53;;;6.50;99.90;;;;;;4972031;28;20285;-68
2023/12/23 03:46:10;;;;;;;10.40;9.50;;;6.50;99.90;;;;;;4988214;28;20220;-68
2023/12/23 03:48:41;;;;;;;10.00;9.10;;;6.50;99.90;;;;;;4977249;28;20690;-67
2023/12/23 03:51:12;;;;;;;10.93;9.60;;;6.50;99.90;;;;;;4975006;28;20244;-62
2023/12/23 03:53:41;;;;;;;10.40;9.60;;;6.50;99.90;;;;;;4992451;28;20608;-62
2023/12/23 03:56:10;;;;;;;10.00;9.03;;;6.50;99.90;;;;;;4976521;28;20212;-61
2023/12/23 03:58:39;;;;;;;9.53;8.47;;;6.40;99.90;;;;;;4976726;28;20814;-62
2023/12/23 04:01:07;;;;;;;9.27;8.20;;;6.40;99.90;;;;;;4975284;28;20684;-61
2023/12/23 04:03:35;;;;;;;8.63;8.13;;;6.40;99.90;;;;;;4975726;28;20298;-63
2023/12/23 04:06:03;;;;;;;8.63;8.10;;;6.40;99.90;;;;;;4961907;28;20543;-63
2023/12/23 04:08:31;;;;;;;8.53;8.10;;;6.40;99.90;;;;;;4987685;28;20556;-62
2023/12/23 04:10:59;;;;;;;9.37;8.47;;;6.40;99.90;;;;;;4992290;28;20232;-61
2023/12/23 04:13:26;;;;;;;9.33;8.47;;;6.40;99.90;;;;;;4989726;28;20205;-61
2023/12/23 04:15:53;;;;;;;10.50;8.40;;;6.40;99.90;;;;;;5006649;28;20261;-61
2023/12/23 04:18:20;;;;;;;10.30;7.97;;;6.40;99.90;;;;;;5004339;28;20208;-62
2023/12/23 04:20:47;;;;;;;9.50;8.00;;;6.50;99.90;;;;;;4992097;28;20688;-61
2023/12/23 04:23:14;;;;;;;9.17;7.80;;;6.40;99.90;;;;;;4989310;28;20217;-62
2023/12/23 04:25:42;;;;;;;8.60;8.00;;;6.40;99.90;;;;;;4986817;28;20236;-61
2023/12/23 04:28:10;;;;;;;8.90;7.97;;;6.40;99.90;;;;;;4989395;28;20286;-62
2023/12/23 04:30:37;;;;;;;7.00;6.50;;;6.40;99.90;;;;;;4992942;28;20296;-62
2023/12/23 04:33:04;;;;;;;7.17;6.67;;;6.50;99.90;;;;;;5012333;28;20188;-62
2023/12/23 04:35:32;;;;;;;8.90;6.83;;;6.50;99.90;;;;;;4993054;28;20300;-62
2023/12/23 04:37:58;;;;;;;9.63;7.30;;;6.50;99.90;;;;;;5005206;28;20311;-61
2023/12/23 04:40:26;;;;;;;7.60;7.10;;;6.50;99.90;;;;;;4969205;28;20725;-61
2023/12/23 04:42:53;;;;;;;8.20;7.60;;;6.50;99.90;;;;;;4991318;28;20203;-63
2023/12/23 04:45:22;;;;;;;9.70;8.40;;;6.50;99.90;;;;;;4990808;28;20229;-62
2023/12/23 04:47:49;;;;;;;9.50;8.10;;;6.50;99.90;;;;;;5005918;28;20220;-62
2023/12/23 04:50:16;;;;;;;8.17;7.67;;;6.50;99.90;;;;;;4991877;28;20189;-62
2023/12/23 04:52:43;;;;;;;8.67;7.77;;;6.50;99.90;;;;;;4991263;28;20203;-62
2023/12/23 04:55:10;;;;;;;8.23;7.57;;;6.50;99.90;;;;;;4991261;28;20583;-61
2023/12/23 04:57:38;;;;;;;9.70;8.03;;;6.50;99.90;;;;;;4990958;28;20721;-62
2023/12/23 05:00:05;;;;;;;12.40;10.50;;;6.50;99.90;;;;;;5006310;28;20196;-69
2023/12/23 05:02:33;;;;;;;20.97;13.67;;;6.50;1.00;;;;;;5006694;28;20197;-68
2023/12/23 05:05:01;;;;;;;19.97;14.67;;;6.60;1.00;;;;;;4973508;28;20198;-69
2023/12/23 05:07:29;;;;;;;13.57;9.77;;;6.60;1.00;;;;;;4992133;28;20687;-69
2023/12/23 05:09:56;;;;;;;10.57;9.57;;;6.70;1.00;;;;;;4988516;28;20244;-70
2023/12/23 05:12:23;;;;;;;11.27;10.13;;;6.70;1.00;;;;;;4970439;28;20213;-68
2023/12/23 05:14:51;;;;;;;11.67;10.47;;;6.80;1.00;;;;;;5006344;28;20250;-70
2023/12/23 05:17:18;;;;;;;10.70;9.70;;;6.80;1.00;;;;;;4993624;28;20193;-70
2023/12/23 05:19:47;;;;;;;14.73;10.80;;;6.90;1.00;;;;;;5006345;28;20197;-69
2023/12/23 05:22:16;;;;;;;12.30;11.00;;;7.00;1.00;;;;;;4970766;28;20654;-69
2023/12/23 05:24:46;;;;;;;17.43;10.97;;;7.20;1.00;;;;;;4991992;28;20190;-70
2023/12/23 05:27:14;;;;;;;11.80;10.70;;;7.20;1.00;;;;;;4991604;28;20221;-68
2023/12/23 05:29:42;;;;;;;10.17;9.27;;;7.30;1.00;;;;;;4992385;28;20211;-69
2023/12/23 05:32:10;;;;;;;10.03;9.13;;;7.40;1.00;;;;;;4974765;28;20228;-68
2023/12/23 05:34:39;;;;;;;10.43;9.33;;;7.50;1.00;;;;;;4980155;28;20251;-69
2023/12/23 05:37:07;;;;;;;13.57;8.70;;;7.50;1.00;;;;;;4995375;28;20224;-70
2023/12/23 05:39:35;;;;;;;8.63;7.97;;;7.60;1.00;;;;;;4994877;28;20197;-69
2023/12/23 05:42:02;;;;;;;8.47;7.83;;;7.60;1.00;;;;;;5007914;28;20198;-68
2023/12/23 05:44:30;;;;;;;8.43;7.43;;;7.70;1.00;;;;;;5006307;28;20255;-69
2023/12/23 05:46:58;;;;;;;7.90;7.00;;;7.80;1.00;;;;;;4997747;28;20218;-69
2023/12/23 05:49:25;;;;;;;11.90;7.73;;;7.80;1.00;;;;;;4985673;28;20203;-69
2023/12/23 05:51:53;;;;;;;13.27;7.97;;;7.90;1.00;;;;;;4987874;28;20641;-69
2023/12/23 05:54:20;;;;;;;11.70;7.77;;;7.90;1.00;;;;;;4975703;28;20193;-69
2023/12/23 05:56:47;;;;;;;14.97;8.80;;;7.90;1.00;;;;;;4987389;28;20292;-68
2023/12/23 05:59:14;;;;;;;9.70;8.80;;;7.90;1.00;;;;;;4988283;28;20200;-69
2023/12/23 06:01:41;;;;;;;9.60;8.63;;;8.00;1.00;;;;;;4991624;28;20288;-70
2023/12/23 06:04:08;;;;;;;12.53;10.13;;;8.00;1.00;;;;;;4988915;28;20202;-70
2023/12/23 06:06:35;;;;;;;13.50;9.10;;;8.00;1.00;;;;;;4985350;28;20233;-70
2023/12/23 06:09:03;;;;;;;12.20;10.10;;;8.00;1.00;;;;;;5006256;28;20681;-70
2023/12/23 06:11:30;;;;;;;15.00;10.00;;;8.00;1.00;;;;;;4992226;28;20292;-67
2023/12/23 06:13:57;;;;;;;13.67;9.80;;;8.00;1.00;;;;;;5009616;28;20189;-66
2023/12/23 06:16:24;;;;;;;14.90;10.03;;;8.00;1.00;;;;;;5008990;28;20278;-66
2023/12/23 06:18:51;;;;;;;11.33;9.40;;;8.10;1.00;;;;;;4991593;28;20977;-66
2023/12/23 06:21:18;;;;;;;10.63;9.57;;;8.10;1.00;;;;;;4975737;28;20197;-65
2023/12/23 06:23:45;;;;;;;8.87;8.17;;;8.10;1.00;;;;;;5009348;28;20185;-64
2023/12/23 06:26:12;;;;;;;12.93;9.50;;;8.00;1.00;;;;;;4990669;28;20209;-64
2023/12/23 06:28:39;;;;;;;13.53;9.47;;;8.10;1.00;;;;;;5008818;28;20260;-63
2023/12/23 06:31:06;;;;;;;8.73;8.00;;;8.10;1.00;;;;;;5009682;28;20244;-63
2023/12/23 06:33:33;;;;;;;9.50;8.43;;;8.10;1.00;;;;;;4991535;28;20705;-63
2023/12/23 06:36:01;;;;;;;9.53;8.10;;;8.10;1.00;;;;;;4989575;28;20197;-64
2023/12/23 06:38:28;;;;;;;13.00;8.93;;;8.10;1.00;;;;;;4990834;28;20211;-66
2023/12/23 06:40:56;;;;;;;9.07;8.13;;;8.10;1.00;;;;;;4991063;28;20227;-63
2023/12/23 06:43:23;;;;;;;9.30;8.20;;;8.10;1.00;;;;;;5014328;28;20579;-64
2023/12/23 06:46:15;;;;;;;8.53;7.73;;;8.10;1.00;;;;;;4996596;28;20212;-66
2023/12/23 06:48:47;;;;;;;12.23;8.50;;;8.10;1.00;;;;;;4979496;28;20763;-64
2023/12/23 06:51:16;;;;;;;16.93;9.10;;;8.10;1.00;;;;;;4977679;28;20201;-66
2023/12/23 06:53:48;;;;;;;11.27;9.47;;;8.10;1.00;;;;;;4975852;28;20647;-65
2023/12/23 06:56:16;;;;;;;10.40;9.07;;;8.10;1.00;;;;;;4985169;28;20294;-66
2023/12/23 06:58:45;;;;;;;10.40;9.53;;;8.10;1.00;;;;;;4987898;28;20293;-63
2023/12/23 07:01:13;;;;;;;14.60;9.67;;;8.20;1.00;;;;;;4977330;28;20203;-64
2023/12/23 07:03:42;;;;;;;14.27;9.70;;;8.10;1.00;;;;;;4992292;28;20192;-64
2023/12/23 07:06:14;;;;;;;10.73;9.60;;;8.20;1.00;;;;;;4977987;28;20540;-64
2023/12/23 07:08:42;;;;;;;13.20;10.30;;;8.20;1.00;;;;;;4992641;28;20315;-66
2023/12/23 07:11:11;;;;;;;14.97;9.40;;;8.20;1.00;;;;;;4969095;28;21005;-64
2023/12/23 07:13:39;;;;;;;13.43;9.73;;;8.20;1.00;;;;;;4994477;28;20193;-64
2023/12/23 07:16:07;;;;;;;13.73;9.40;;;8.20;1.00;;;;;;4977982;28;20201;-65
2023/12/23 07:18:37;;;;;;;12.27;9.97;;;8.20;1.00;;;;;;4994820;28;20209;-63
2023/12/23 07:21:06;;;;;;;16.30;9.80;;;8.20;1.00;;;;;;5007209;28;20288;-64
2023/12/23 07:23:33;;;;;;;9.27;8.37;;;8.10;1.00;;;;;;4995864;28;20686;-68
2023/12/23 07:26:03;;;;;;;14.33;9.97;;;8.20;1.00;;;;;;4977300;28;20291;-65
2023/12/23 07:28:31;;;;;;;10.23;9.40;;;8.10;1.00;;;;;;4989034;28;20304;-63
2023/12/23 07:30:59;;;;;;;11.93;9.10;;;8.10;1.00;;;;;;4976174;28;20284;-63
2023/12/23 07:33:27;;;;;;;17.07;9.20;;;8.20;1.00;;;;;;4989234;28;20229;-63
2023/12/23 07:35:55;;;;;;;13.97;9.07;;;8.20;1.00;;;;;;4984241;28;20228;-64
2023/12/23 07:38:23;;;;;;;9.47;8.63;;;8.30;1.00;;;;;;4990649;28;20198;-63
2023/12/23 07:40:52;;;;;;;9.13;8.27;;;8.30;1.00;;;;;;4985821;28;20240;-65
2023/12/23 07:43:19;;;;;;;8.97;7.93;;;8.30;1.00;;;;;;4984173;28;20194;-65
2023/12/23 07:45:49;;;;;;;9.57;7.67;;;8.30;1.00;;;;;;4972750;28;20260;-65
2023/12/23 07:48:20;;;;;;;12.07;7.70;;;8.40;1.00;;;;;;4994364;28;20531;-65
2023/12/23 07:50:48;;;;;;;12.27;8.57;;;8.30;1.00;;;;;;4970358;28;20253;-65
2023/12/23 07:53:16;;;;;;;9.83;8.23;;;8.30;1.00;;;;;;4988820;28;20651;-64
2023/12/23 07:55:45;;;;;;;9.13;7.97;;;8.30;1.00;;;;;;4993358;28;20197;-65
2023/12/23 07:58:16;;;;;;;8.57;7.70;;;8.30;1.00;;;;;;4993572;28;20204;-64
2023/12/23 08:00:45;;;;;;;10.57;7.43;;;8.20;1.00;;;;;;4990113;28;20217;-64
2023/12/23 08:03:13;;;;;;;11.37;8.23;;;8.20;1.00;;;;;;4989305;28;20198;-63
2023/12/23 08:05:43;;;;;;;8.17;7.30;;;8.20;1.00;;;;;;4970637;28;20269;-64
2023/12/23 08:08:13;;;;;;;8.07;7.47;;;8.30;1.00;;;;;;4988519;28;20216;-64
2023/12/23 08:10:44;;;;;;;10.20;7.47;;;8.40;1.00;;;;;;4991208;28;20208;-67
2023/12/23 08:13:12;;;;;;;13.87;7.93;;;8.30;1.00;;;;;;4986112;28;20233;-66
2023/12/23 08:15:40;;;;;;;8.70;7.90;;;8.30;1.00;;;;;;4990571;28;20221;-64
2023/12/23 08:18:08;;;;;;;13.83;8.47;;;8.30;1.00;;;;;;4976016;28;20205;-65
2023/12/23 08:20:36;;;;;;;9.33;8.37;;;8.40;1.00;;;;;;4993012;28;20791;-70
2023/12/23 08:23:04;;;;;;;13.10;7.87;;;8.40;1.00;;;;;;4987692;28;20197;-72
2023/12/23 08:25:31;;;;;;;8.53;7.70;;;8.40;1.00;;;;;;4998285;28;20201;-70
2023/12/23 08:27:59;;;;;;;9.53;7.30;;;8.40;1.00;;;;;;4993756;28;20237;-71
2023/12/23 08:30:26;;;;;;;10.53;7.43;;;8.40;1.00;;;;;;4986088;28;20563;-65
2023/12/23 08:32:54;;;;;;;12.37;7.70;;;8.50;1.00;;;;;;4987808;28;20304;-65
2023/12/23 08:35:22;;;;;;;8.27;7.50;;;8.50;1.00;;;;;;4976763;28;20284;-65
2023/12/23 08:37:53;;;;;;;7.73;7.00;;;8.50;1.00;;;;;;4991188;28;20292;-67
2023/12/23 08:40:21;;;;;;;8.03;7.23;;;8.50;1.00;;;;;;4979578;28;20692;-62
2023/12/23 08:42:52;;;;;;;8.37;7.67;;;8.50;1.00;;;;;;5006032;28;20742;-65
2023/12/23 08:45:20;;;;;;;6.90;6.40;;;8.50;1.00;;;;;;4993847;28;20196;-64
2023/12/23 08:47:48;;;;;;;14.83;7.53;;;8.50;99.90;;;;;;4993715;28;20201;-64
2023/12/23 08:50:16;;;;;;;7.67;7.00;;;8.60;99.90;;;;;;4986720;28;20206;-64
2023/12/23 08:52:44;;;;;;;12.00;7.10;;;8.60;99.90;;;;;;4980293;28;20637;-64
2023/12/23 08:55:11;;;;;;;8.33;6.90;;;8.60;99.90;;;;;;5007926;28;20213;-64
2023/12/23 08:57:38;;;;;;;7.50;6.80;;;8.60;99.90;;;;;;5000080;28;20684;-63
2023/12/23 09:00:06;;;;;;;16.47;7.17;;;8.60;99.90;;;;;;4994049;28;20299;-72
2023/12/23 09:02:36;;;;;;;9.30;6.90;;;8.60;99.90;;;;;;5007880;28;20609;-63
2023/12/23 09:05:04;;;;;;;7.43;6.77;;;8.60;99.90;;;;;;5002964;28;20211;-63
2023/12/23 09:07:32;;;;;;;9.27;7.30;;;8.70;99.90;;;;;;4984910;28;20220;-64
2023/12/23 09:10:03;;;;;;;8.17;6.40;;;8.70;99.90;;;;;;5007515;28;20649;-64
2023/12/23 09:12:30;;;;;;;8.37;6.27;;;8.70;99.90;;;;;;5009696;28;20193;-64
2023/12/23 09:15:00;;;;;;;9.87;6.53;;;8.70;99.90;;;;;;4973389;28;20229;-63
2023/12/23 09:17:27;;;;;;;9.93;6.97;;;8.70;99.90;;;;;;5001117;28;20204;-63
2023/12/23 09:19:58;;;;;;;9.20;6.27;;;8.70;99.90;;;;;;5008119;28;20189;-64
2023/12/23 09:22:25;;;;;;;7.43;6.73;;;8.70;99.90;;;;;;4986131;28;20661;-63
2023/12/23 09:24:52;;;;;;;8.03;7.17;;;8.70;99.90;;;;;;4990921;28;20203;-64
2023/12/23 09:27:19;;;;;;;7.80;6.60;;;8.70;99.90;;;;;;5002043;28;20232;-64
2023/12/23 09:29:46;;;;;;;7.33;6.73;;;8.80;99.90;;;;;;5005917;28;20303;-64
2023/12/23 09:32:13;;;;;;;8.17;6.57;;;8.80;99.90;;;;;;4990709;28;20220;-63
2023/12/23 09:34:40;;;;;;;8.07;6.57;;;8.80;99.90;;;;;;5004936;28;20205;-63
2023/12/23 09:37:07;;;;;;;12.07;7.43;;;8.80;99.90;;;;;;5009669;28;20204;-63
2023/12/23 09:39:34;;;;;;;7.63;6.90;;;8.80;99.90;;;;;;5008479;28;20208;-65
2023/12/23 09:42:01;;;;;;;7.53;6.80;;;8.80;99.90;;;;;;5008876;28;20204;-64
2023/12/23 09:44:28;;;;;;;8.63;6.53;;;8.80;99.90;;;;;;4988544;28;20204;-64
2023/12/23 09:46:55;;;;;;;15.13;7.43;;;8.80;99.90;;;;;;5007074;28;20694;-63
2023/12/23 09:49:24;;;;;;;7.37;6.83;;;8.80;99.90;;;;;;4988781;28;20779;-63
2023/12/23 09:51:54;;;;;;;7.47;6.77;;;8.90;99.90;;;;;;4994331;28;21023;-65
2023/12/23 09:54:25;;;;;;;9.30;7.13;;;8.90;99.90;;;;;;4989667;28;20578;-65
2023/12/23 09:56:53;;;;;;;10.63;6.93;;;8.90;99.90;;;;;;5011156;28;20644;-65
2023/12/23 09:59:20;;;;;;;10.73;7.83;;;8.90;99.90;;;;;;4988912;28;20196;-65
2023/12/23 10:01:47;;;;;;;11.27;7.30;;;8.90;99.90;;;;;;4992668;28;20208;-65
2023/12/23 10:04:14;;;;;;;7.97;7.30;;;8.90;99.90;;;;;;5009993;28;20193;-65
2023/12/23 10:06:41;;;;;;;10.47;7.50;;;8.90;99.90;;;;;;5006166;28;20298;-64
2023/12/23 10:09:10;;;;;;;7.70;6.97;;;8.90;99.90;;;;;;5004906;28;20197;-63
2023/12/23 10:11:37;;;;;;;9.17;7.07;;;8.90;99.90;;;;;;5007284;28;20811;-64
2023/12/23 10:14:04;;;;;;;11.07;7.70;;;8.90;99.90;;;;;;5003310;28;20197;-64
2023/12/23 10:16:31;;;;;;;7.33;6.73;;;8.90;99.90;;;;;;4987314;28;20189;-65
2023/12/23 10:18:59;;;;;;;12.07;7.10;;;9.00;99.90;;;;;;4988602;28;20201;-64
2023/12/23 10:21:27;;;;;;;9.23;7.60;;;9.00;99.90;;;;;;4993918;28;20276;-63
2023/12/23 10:23:54;;;;;;;12.77;7.67;;;9.00;99.90;;;;;;4986252;28;20716;-64
2023/12/23 10:26:21;;;;;;;8.10;7.30;;;9.00;99.90;;;;;;5010495;28;20528;-63
2023/12/23 10:28:57;;;;;;;9.93;7.70;;;9.00;99.90;;;;;;5006174;28;20570;-63
2023/12/23 10:31:29;;;;;;;8.43;7.57;;;9.00;99.90;;;;;;5002086;28;20223;-64
2023/12/23 10:34:00;;;;;;;9.90;7.80;;;9.00;99.90;;;;;;4991413;28;20204;-64
2023/12/23 10:36:27;;;;;;;8.23;7.53;;;9.00;99.90;;;;;;5008395;28;20271;-65
2023/12/23 10:39:00;;;;;;;8.70;7.90;;;9.00;99.90;;;;;;5006369;28;20279;-64
2023/12/23 10:41:53;;;;;;;8.30;7.60;;;9.00;99.90;;;;;;5009149;28;20201;-63
2023/12/23 10:44:20;;;;;;;18.23;7.37;;;9.00;99.90;;;;;;4991067;28;20205;-63
2023/12/23 10:46:50;;;;;;;12.50;8.00;;;9.00;99.90;;;;;;4995607;28;20224;-64
2023/12/23 10:49:18;;;;;;;13.87;7.47;;;9.00;99.90;;;;;;5009470;28;20564;-65
2023/12/23 10:51:46;;;;;;;7.80;6.90;;;9.00;99.90;;;;;;5002626;28;20239;-63
2023/12/23 10:54:13;;;;;;;7.50;6.90;;;9.00;99.90;;;;;;5003522;28;20296;-66
2023/12/23 10:56:41;;;;;;;11.80;7.50;;;9.00;99.90;;;;;;4988843;28;20188;-64
2023/12/23 10:59:09;;;;;;;8.23;7.47;;;9.00;99.90;;;;;;5002960;28;20235;-63
2023/12/23 11:01:37;;;;;;;8.23;7.53;;;9.00;99.90;;;;;;4990051;28;20189;-63
2023/12/23 11:04:05;;;;;;;7.60;6.93;;;9.00;99.90;;;;;;5004414;28;20251;-63
2023/12/23 11:06:39;;;;;;;9.47;7.00;;;9.00;99.90;;;;;;4994575;28;20227;-64
2023/12/23 11:09:08;;;;;;;9.53;7.37;;;9.00;99.90;;;;;;4998947;28;20200;-63
2023/12/23 11:11:36;;;;;;;7.93;7.30;;;9.00;99.90;;;;;;5002599;28;20692;-63
2023/12/23 11:14:04;;;;;;;8.13;7.40;;;9.00;99.90;;;;;;5002293;28;20193;-63
2023/12/23 11:16:31;;;;;;;7.10;6.60;;;9.00;99.90;;;;;;4991131;28;20196;-71
2023/12/23 11:18:59;;;;;;;7.80;7.13;;;9.00;99.90;;;;;;4983195;28;20201;-63
2023/12/23 11:21:26;;;;;;;10.33;7.63;;;9.00;99.90;;;;;;5000212;28;20559;-64
2023/12/23 11:23:53;;;;;;;8.97;8.20;;;9.00;99.90;;;;;;5002594;28;20260;-64
2023/12/23 11:26:39;;;;;;;8.93;7.10;;;9.00;99.90;;;;;;5005056;28;20479;-64
2023/12/23 11:29:08;;;;;;;8.53;7.23;;;9.00;99.90;;;;;;5006642;28;20256;-63
2023/12/23 11:31:35;;;;;;;7.57;6.97;;;8.90;99.90;;;;;;5004738;28;20539;-66
2023/12/23 11:34:15;;;;;;;7.57;6.90;;;9.00;99.90;;;;;;5000932;28;20574;-63
2023/12/23 11:36:44;;;;;;;6.67;6.03;;;8.90;99.90;;;;;;4988978;28;20216;-64
2023/12/23 11:39:12;;;;;;;8.93;6.90;;;8.90;99.90;;;;;;5004645;28;20214;-63
2023/12/23 11:41:41;;;;;;;6.43;6.03;;;8.90;99.90;;;;;;5008001;28;20262;-63
2023/12/23 11:44:10;;;;;;;6.83;6.43;;;8.90;99.90;;;;;;5001812;28;20243;-65
2023/12/23 11:46:40;;;;;;;6.57;6.07;;;8.90;99.90;;;;;;5003690;28;20650;-63
2023/12/23 11:49:09;;;;;;;6.53;6.13;;;8.90;99.90;;;;;;5004606;28;20216;-63
2023/12/23 11:51:39;;;;;;;7.07;6.47;;;8.90;99.90;;;;;;5006069;28;20346;-68
2023/12/23 11:54:07;;;;;;;9.73;6.27;;;8.90;99.90;;;;;;4979638;28;20622;-69
2023/12/23 11:56:35;;;;;;;7.43;6.53;;;8.90;99.90;;;;;;5004969;28;20220;-68
2023/12/23 11:59:02;;;;;;;7.37;6.80;;;8.90;99.90;;;;;;4988203;28;20210;-71
2023/12/23 12:01:35;;;;;;;7.80;7.10;;;8.90;99.90;;;;;;5015951;28;20200;-64
2023/12/23 12:04:04;;;;;;;6.80;6.20;;;8.90;99.90;;;;;;4978309;28;20576;-62
2023/12/23 12:06:31;;;;;;;7.57;6.20;;;8.90;99.90;;;;;;5008172;28;20193;-63
2023/12/23 12:09:00;;;;;;;6.80;6.20;;;8.90;99.90;;;;;;5009877;28;20217;-63
2023/12/23 12:11:28;;;;;;;6.93;6.20;;;8.90;99.90;;;;;;5006992;28;20300;-74
2023/12/23 12:13:58;;;;;;;7.13;6.50;;;8.90;99.90;;;;;;5005700;28;20193;-63
2023/12/23 12:16:26;;;;;;;9.70;6.77;;;8.90;99.90;;;;;;4991146;28;20189;-62
2023/12/23 12:18:53;;;;;;;9.17;7.80;;;8.90;99.90;;;;;;4990546;28;20219;-65
2023/12/23 12:21:20;;;;;;;7.30;6.70;;;8.90;99.90;;;;;;4984996;28;20635;-63
2023/12/23 12:23:48;;;;;;;7.87;7.03;;;8.90;99.90;;;;;;5005702;28;20193;-64
2023/12/23 12:26:15;;;;;;;7.10;6.40;;;8.90;99.90;;;;;;5009069;28;20310;-63
2023/12/23 12:28:43;;;;;;;7.53;6.30;;;8.90;99.90;;;;;;5006561;28;20248;-63
2023/12/23 12:31:14;;;;;;;14.00;6.53;;;8.90;99.90;;;;;;5008612;28;20193;-63
2023/12/23 12:33:42;;;;;;;7.07;6.47;;;8.90;99.90;;;;;;5013200;28;20217;-63
2023/12/23 12:36:13;;;;;;;7.30;6.70;;;8.80;99.90;;;;;;5010150;28;20554;-63
2023/12/23 12:38:42;;;;;;;11.77;6.83;;;8.90;99.90;;;;;;4991022;28;20192;-63
2023/12/23 12:41:10;;;;;;;7.50;6.80;;;8.80;99.90;;;;;;5010443;28;20205;-64
2023/12/23 12:43:38;;;;;;;7.40;6.80;;;8.90;99.90;;;;;;5011380;28;20285;-64
2023/12/23 12:46:06;;;;;;;9.50;6.90;;;8.80;99.90;;;;;;5009624;28;20505;-63
2023/12/23 12:48:33;;;;;;;10.93;6.83;;;8.80;99.90;;;;;;4994112;28;20291;-64
2023/12/23 12:51:00;;;;;;;8.50;6.87;;;8.90;99.90;;;;;;5009977;28;20693;-64
2023/12/23 12:53:30;;;;;;;8.33;7.30;;;8.90;99.90;;;;;;5006411;28;20197;-64
2023/12/23 12:56:08;;;;;;;10.87;7.83;;;8.90;99.90;;;;;;5000761;28;20275;-63
2023/12/23 12:58:35;;;;;;;9.30;7.20;;;8.90;99.90;;;;;;5000535;28;20200;-67
2023/12/23 13:01:03;;;;;;;10.00;8.00;;;8.90;99.90;;;;;;5009867;28;20201;-63